createdAt,value
2023-03-16T00:00:09.780Z,6.40
2023-03-16T00:02:31.251Z,6.57
2023-03-16T00:04:52.740Z,6.07
2023-03-16T00:07:14.828Z,6.70
2023-03-16T00:09:41.056Z,6.80
2023-03-16T00:12:03.302Z,6.30
2023-03-16T00:14:25.979Z,6.50
2023-03-16T00:16:47.504Z,6.87
2023-03-16T00:19:08.981Z,6.90
2023-03-16T00:21:32.121Z,6.30
2023-03-16T00:23:53.619Z,7.33
2023-03-16T00:26:15.124Z,8.03
2023-03-16T00:28:36.973Z,6.13
2023-03-16T00:30:59.271Z,5.87
2023-03-16T00:33:20.858Z,6.83
2023-03-16T00:35:49.997Z,6.43
2023-03-16T00:38:11.911Z,6.67
2023-03-16T00:40:33.954Z,5.67
2023-03-16T00:42:55.683Z,6.00
2023-03-16T00:45:17.221Z,5.17
2023-03-16T00:47:38.720Z,5.97
2023-03-16T00:50:01.267Z,6.33
2023-03-16T00:52:23.624Z,6.33
2023-03-16T00:54:47.060Z,5.90
2023-03-16T00:57:09.301Z,5.57
2023-03-16T00:59:31.311Z,5.40
2023-03-16T01:01:53.885Z,6.10
2023-03-16T01:04:15.416Z,5.17
2023-03-16T01:06:38.822Z,5.00
2023-03-16T01:09:02.692Z,4.83
2023-03-16T01:11:24.237Z,5.57
2023-03-16T01:13:47.352Z,6.23
2023-03-16T01:16:09.965Z,7.47
2023-03-16T01:18:34.812Z,9.57
2023-03-16T01:20:56.294Z,10.20
2023-03-16T01:23:18.386Z,33.73
2023-03-16T01:25:41.276Z,26.43
2023-03-16T01:28:03.645Z,16.23
2023-03-16T01:30:25.521Z,12.13
2023-03-16T01:32:47.334Z,10.97
2023-03-16T01:35:09.358Z,9.87
2023-03-16T01:37:31.711Z,6.20
2023-03-16T01:39:53.242Z,4.97
2023-03-16T01:42:14.812Z,4.80
2023-03-16T01:44:56.647Z,4.80
2023-03-16T01:47:18.506Z,4.50
2023-03-16T01:49:40.033Z,4.33
2023-03-16T01:52:07.416Z,4.57
2023-03-16T01:54:48.445Z,4.43
2023-03-16T01:57:21.996Z,4.90
2023-03-16T01:59:50.559Z,4.30
2023-03-16T02:02:15.468Z,4.03
2023-03-16T02:04:51.126Z,4.30
2023-03-16T02:07:13.223Z,4.77
2023-03-16T02:09:39.074Z,6.27
2023-03-16T02:12:01.368Z,6.23
2023-03-16T02:14:24.907Z,5.80
2023-03-16T02:16:47.574Z,6.13
2023-03-16T02:19:16.192Z,5.30
2023-03-16T02:21:45.643Z,5.13
2023-03-16T02:24:07.335Z,5.00
2023-03-16T02:26:51.497Z,4.80
2023-03-16T02:29:48.981Z,4.67
2023-03-16T02:32:11.854Z,4.17
2023-03-16T02:34:33.417Z,4.30
2023-03-16T02:36:57.007Z,3.57
2023-03-16T02:39:18.888Z,4.27
2023-03-16T02:41:41.811Z,5.10
2023-03-16T02:44:26.502Z,7.63
2023-03-16T02:46:48.480Z,6.00
2023-03-16T02:49:31.876Z,5.83
2023-03-16T02:51:53.659Z,3.97
2023-03-16T02:54:15.156Z,3.83
2023-03-16T02:56:36.702Z,4.27
2023-03-16T02:58:58.247Z,3.90
2023-03-16T03:01:19.784Z,4.00
2023-03-16T03:03:41.255Z,4.37
2023-03-16T03:06:02.788Z,4.10
2023-03-16T03:08:24.322Z,4.80
2023-03-16T03:10:46.252Z,6.33
2023-03-16T03:13:07.818Z,6.23
2023-03-16T03:15:29.330Z,5.80
2023-03-16T03:17:50.825Z,5.27
2023-03-16T03:20:19.958Z,5.27
2023-03-16T03:22:42.023Z,4.67
2023-03-16T03:25:03.506Z,4.73
2023-03-16T03:27:25.041Z,4.30
2023-03-16T03:29:46.569Z,4.30
2023-03-16T03:32:08.365Z,4.00
2023-03-16T03:34:31.367Z,4.53
2023-03-16T03:36:53.684Z,4.67
2023-03-16T03:39:15.139Z,4.87
2023-03-16T03:41:36.794Z,5.00
2023-03-16T03:43:59.901Z,4.50
2023-03-16T03:46:21.553Z,4.50
2023-03-16T03:48:43.069Z,4.97
2023-03-16T03:51:05.680Z,4.30
2023-03-16T03:53:27.129Z,4.20
2023-03-16T03:55:49.938Z,3.60
2023-03-16T03:58:12.201Z,4.07
2023-03-16T04:00:34.009Z,3.73
2023-03-16T04:02:55.616Z,4.13
2023-03-16T04:05:17.307Z,4.00
2023-03-16T04:07:39.144Z,4.17
2023-03-16T04:10:01.078Z,4.23
2023-03-16T04:12:23.170Z,4.40
2023-03-16T04:14:44.746Z,4.60
2023-03-16T04:17:06.172Z,5.13
2023-03-16T04:19:28.615Z,5.70
2023-03-16T04:21:50.586Z,5.80
2023-03-16T04:24:14.790Z,7.80
2023-03-16T04:26:36.326Z,12.63
2023-03-16T04:28:58.633Z,11.50
2023-03-16T04:31:20.206Z,9.60
2023-03-16T04:33:42.352Z,7.67
2023-03-16T04:36:05.668Z,6.93
2023-03-16T04:38:27.111Z,7.40
2023-03-16T04:40:48.508Z,6.90
2023-03-16T04:43:09.930Z,6.57
2023-03-16T04:45:32.886Z,6.50
2023-03-16T04:47:54.313Z,6.17
2023-03-16T04:50:15.941Z,6.30
2023-03-16T04:52:37.837Z,5.63
2023-03-16T04:54:59.286Z,5.07
2023-03-16T04:57:20.813Z,4.73
2023-03-16T04:59:42.353Z,4.70
2023-03-16T05:02:04.122Z,4.37
2023-03-16T05:04:25.558Z,4.73
2023-03-16T05:06:47.070Z,4.40
2023-03-16T05:09:08.933Z,5.03
2023-03-16T05:11:30.696Z,6.67
2023-03-16T05:13:52.285Z,7.80
2023-03-16T05:16:13.825Z,6.27
2023-03-16T05:18:35.368Z,6.60
2023-03-16T05:20:56.896Z,9.47
2023-03-16T05:23:18.334Z,5.33
2023-03-16T05:25:40.456Z,4.60
2023-03-16T05:28:02.100Z,4.50
2023-03-16T05:30:23.644Z,11.43
2023-03-16T05:32:45.812Z,82.37
2023-03-16T05:35:07.627Z,90.97
2023-03-16T05:37:29.823Z,39.47
2023-03-16T05:39:51.252Z,15.37
2023-03-16T05:42:12.714Z,6.43
2023-03-16T05:44:34.414Z,5.80
2023-03-16T05:46:56.058Z,5.00
2023-03-16T05:49:17.805Z,5.00
2023-03-16T05:51:39.270Z,6.40
2023-03-16T05:54:00.729Z,6.10
2023-03-16T05:56:24.808Z,5.97
2023-03-16T05:58:46.358Z,6.57
2023-03-16T06:01:09.577Z,6.77
2023-03-16T06:03:31.451Z,5.93
2023-03-16T06:05:53.511Z,5.27
2023-03-16T06:08:15.502Z,6.03
2023-03-16T06:10:36.993Z,5.83
2023-03-16T06:12:59.905Z,5.80
2023-03-16T06:15:25.076Z,5.17
2023-03-16T06:17:46.616Z,6.00
2023-03-16T06:20:11.389Z,6.57
2023-03-16T06:22:33.000Z,6.17
2023-03-16T06:24:54.453Z,6.50
2023-03-16T06:27:15.872Z,5.90
2023-03-16T06:29:37.438Z,6.83
2023-03-16T06:31:58.903Z,6.73
2023-03-16T06:34:20.916Z,7.07
2023-03-16T06:36:42.344Z,7.37
2023-03-16T06:39:04.540Z,7.10
2023-03-16T06:41:26.052Z,6.83
2023-03-16T06:43:47.510Z,7.13
2023-03-16T06:46:09.307Z,6.43
2023-03-16T06:48:31.307Z,8.47
2023-03-16T06:50:52.899Z,7.03
2023-03-16T06:53:14.512Z,7.77
2023-03-16T06:55:35.996Z,6.87
2023-03-16T06:57:57.441Z,6.73
2023-03-16T07:00:19.424Z,7.83
2023-03-16T07:02:42.556Z,7.70
2023-03-16T07:05:04.301Z,6.87
2023-03-16T07:07:27.277Z,7.83
2023-03-16T07:09:49.175Z,7.60
2023-03-16T07:12:10.885Z,6.87
2023-03-16T07:14:32.325Z,7.17
2023-03-16T07:16:53.910Z,6.80
2023-03-16T07:19:15.429Z,7.07
2023-03-16T07:21:40.754Z,6.90
2023-03-16T07:24:02.240Z,6.47
2023-03-16T07:26:23.682Z,6.80
2023-03-16T07:28:45.101Z,7.00
2023-03-16T07:31:07.357Z,6.97
2023-03-16T07:33:28.783Z,7.27
2023-03-16T07:35:50.254Z,6.73
2023-03-16T07:38:12.291Z,7.30
2023-03-16T07:40:34.805Z,7.13
2023-03-16T07:42:56.497Z,6.90
2023-03-16T07:45:18.192Z,7.07
2023-03-16T07:47:39.649Z,7.43
2023-03-16T07:50:01.429Z,6.47
2023-03-16T07:52:24.090Z,6.90
2023-03-16T07:54:45.579Z,6.43
2023-03-16T07:57:07.778Z,6.60
2023-03-16T07:59:29.357Z,7.27
2023-03-16T08:01:50.803Z,7.47
2023-03-16T08:04:12.597Z,7.20
2023-03-16T08:06:34.020Z,7.40
2023-03-16T08:08:55.534Z,7.07
2023-03-16T08:11:23.639Z,7.73
2023-03-16T08:13:46.965Z,7.83
2023-03-16T08:16:10.629Z,8.00
2023-03-16T08:18:32.262Z,7.20
2023-03-16T08:20:54.868Z,7.30
2023-03-16T08:23:17.291Z,7.03
2023-03-16T08:25:38.804Z,6.70
2023-03-16T08:28:00.258Z,8.10
2023-03-16T08:30:22.831Z,7.83
2023-03-16T08:32:44.507Z,7.47
2023-03-16T08:35:08.333Z,8.10
2023-03-16T08:37:29.782Z,8.23
2023-03-16T08:39:51.599Z,7.20
2023-03-16T08:42:15.266Z,7.30
2023-03-16T08:44:37.228Z,6.60
2023-03-16T08:47:01.578Z,7.23
2023-03-16T08:49:24.069Z,6.67
2023-03-16T08:51:46.546Z,6.77
2023-03-16T08:54:08.012Z,7.07
2023-03-16T08:56:30.535Z,7.43
2023-03-16T08:58:52.193Z,7.00
2023-03-16T09:01:17.453Z,6.87
2023-03-16T09:03:40.674Z,5.73
2023-03-16T09:06:04.909Z,6.47
2023-03-16T09:08:26.386Z,6.27
2023-03-16T09:10:47.831Z,7.20
2023-03-16T09:13:09.244Z,6.17
2023-03-16T09:15:31.525Z,6.73
2023-03-16T09:17:54.375Z,7.17
2023-03-16T09:20:22.655Z,7.00
2023-03-16T09:22:48.181Z,6.13
2023-03-16T09:25:11.291Z,6.20
2023-03-16T09:27:33.907Z,5.90
2023-03-16T09:29:56.540Z,6.23
2023-03-16T09:32:18.345Z,6.40
2023-03-16T09:34:40.281Z,6.20
2023-03-16T09:37:02.576Z,6.10
2023-03-16T09:39:24.084Z,6.50
2023-03-16T09:41:53.974Z,5.63
2023-03-16T09:44:22.675Z,6.07
2023-03-16T09:46:46.363Z,6.07
2023-03-16T09:49:10.874Z,5.60
2023-03-16T09:51:38.581Z,6.20
2023-03-16T09:54:03.058Z,6.70
2023-03-16T09:56:33.856Z,6.23
2023-03-16T09:58:56.139Z,7.17
2023-03-16T10:01:50.299Z,6.33
2023-03-16T10:05:03.144Z,6.07
2023-03-16T10:07:50.056Z,5.60
2023-03-16T10:10:11.468Z,5.60
2023-03-16T10:12:41.521Z,6.00
2023-03-16T10:15:08.492Z,5.60
2023-03-16T10:17:38.814Z,5.40
2023-03-16T10:20:08.961Z,5.80
2023-03-16T10:22:33.613Z,7.13
2023-03-16T10:25:01.460Z,6.30
2023-03-16T10:27:29.694Z,7.50
2023-03-16T10:29:51.331Z,7.00
2023-03-16T10:32:16.998Z,5.00
2023-03-16T10:34:38.541Z,5.93
2023-03-16T10:37:02.924Z,5.07
2023-03-16T10:39:24.410Z,6.40
2023-03-16T10:41:56.105Z,5.70
2023-03-16T10:44:24.622Z,5.50
2023-03-16T10:46:58.263Z,4.93
2023-03-16T10:49:49.056Z,5.43
2023-03-16T10:52:23.950Z,7.70
2023-03-16T10:54:55.123Z,5.60
2023-03-16T10:57:22.689Z,6.80
2023-03-16T10:59:49.709Z,5.63
2023-03-16T11:02:20.749Z,5.00
2023-03-16T11:04:42.733Z,4.90
2023-03-16T11:07:09.789Z,4.40
2023-03-16T11:09:33.760Z,4.83
2023-03-16T11:11:55.461Z,4.97
2023-03-16T11:14:21.056Z,4.80
2023-03-16T11:16:52.041Z,4.53
2023-03-16T11:19:34.667Z,4.20
2023-03-16T11:22:06.469Z,4.50
2023-03-16T11:24:59.323Z,4.43
2023-03-16T11:27:25.148Z,4.60
2023-03-16T11:30:05.399Z,4.10
2023-03-16T11:32:33.325Z,4.23
2023-03-16T11:34:54.848Z,3.30
2023-03-16T11:37:28.593Z,2.90
2023-03-16T11:40:15.179Z,3.60
2023-03-16T11:42:44.065Z,3.20
2023-03-16T11:45:20.539Z,3.30
2023-03-16T11:47:54.068Z,3.23
2023-03-16T11:50:25.478Z,3.10
2023-03-16T11:53:17.364Z,3.53
2023-03-16T11:56:08.037Z,3.40
2023-03-16T11:58:57.273Z,3.60
2023-03-16T12:01:43.074Z,3.17
2023-03-16T12:04:10.602Z,3.50
2023-03-16T12:06:47.019Z,3.27
2023-03-16T12:09:30.232Z,3.30
2023-03-16T12:12:23.835Z,3.07
2023-03-16T12:14:55.356Z,3.40
2023-03-16T12:17:23.263Z,3.90
2023-03-16T12:19:54.076Z,3.20
2023-03-16T12:22:24.289Z,3.87
2023-03-16T12:24:47.135Z,3.23
2023-03-16T12:27:15.881Z,2.77
2023-03-16T12:30:02.516Z,3.40
2023-03-16T12:32:38.452Z,3.17
2023-03-16T12:35:34.000Z,3.57
2023-03-16T12:38:20.866Z,3.23
2023-03-16T12:40:55.753Z,3.30
2023-03-16T12:43:37.176Z,3.30
2023-03-16T12:46:12.542Z,4.00
2023-03-16T12:48:40.237Z,3.37
2023-03-16T12:51:05.059Z,3.73
2023-03-16T12:53:48.385Z,3.60
2023-03-16T12:56:13.382Z,3.13
2023-03-16T12:58:34.931Z,3.03
2023-03-16T13:00:59.571Z,3.03
2023-03-16T13:03:23.164Z,3.03
2023-03-16T13:05:49.849Z,2.87
2023-03-16T13:08:15.872Z,4.07
2023-03-16T13:10:38.756Z,2.57
2023-03-16T13:13:25.527Z,2.63
2023-03-16T13:15:47.618Z,2.97
2023-03-16T13:18:09.099Z,2.60
2023-03-16T13:20:34.029Z,2.20
2023-03-16T13:23:18.367Z,2.40
2023-03-16T13:26:03.234Z,2.30
2023-03-16T13:28:29.964Z,3.03
2023-03-16T13:30:51.491Z,2.67
2023-03-16T13:33:20.781Z,2.80
2023-03-16T13:35:42.296Z,2.42
2023-03-16T13:38:08.059Z,2.30
2023-03-16T13:40:29.744Z,1.70
2023-03-16T13:42:53.248Z,1.73
2023-03-16T13:45:19.362Z,1.77
2023-03-16T13:47:45.336Z,1.90
2023-03-16T13:50:11.792Z,1.80
2023-03-16T13:52:35.260Z,2.00
2023-03-16T13:55:02.030Z,1.92
2023-03-16T13:57:27.108Z,2.45
2023-03-16T13:59:48.746Z,1.77
2023-03-16T14:02:17.910Z,1.67
2023-03-16T14:04:39.400Z,1.50
2023-03-16T14:07:03.750Z,1.63
2023-03-16T14:09:28.746Z,2.13
2023-03-16T14:11:50.316Z,1.73
2023-03-16T14:14:17.148Z,2.03
2023-03-16T14:16:38.697Z,1.57
2023-03-16T14:19:08.155Z,1.87
2023-03-16T14:21:31.909Z,1.90
2023-03-16T14:24:07.797Z,1.70
2023-03-16T14:26:43.338Z,2.17
2023-03-16T14:29:25.051Z,1.65
2023-03-16T14:31:46.521Z,2.17
2023-03-16T14:34:29.468Z,1.70
2023-03-16T14:36:51.219Z,1.80
2023-03-16T14:39:16.846Z,1.70
2023-03-16T14:41:39.909Z,1.97
2023-03-16T14:44:03.059Z,1.75
2023-03-16T14:46:31.002Z,1.90
2023-03-16T14:48:52.475Z,1.60
2023-03-16T14:51:15.082Z,1.67
2023-03-16T14:53:37.248Z,1.70
2023-03-16T14:55:59.467Z,1.73
2023-03-16T14:58:21.374Z,1.60
2023-03-16T15:00:52.637Z,1.93
2023-03-16T15:03:17.447Z,1.93
2023-03-16T15:05:41.856Z,1.60
2023-03-16T15:08:05.805Z,1.90
2023-03-16T15:10:35.320Z,2.08
2023-03-16T15:13:06.040Z,1.80
2023-03-16T15:15:28.650Z,2.13
2023-03-16T15:17:52.162Z,1.90
2023-03-16T15:20:15.652Z,1.80
2023-03-16T15:22:39.181Z,1.70
2023-03-16T15:25:18.077Z,1.80
2023-03-16T15:27:39.563Z,2.20
2023-03-16T15:30:01.907Z,1.83
2023-03-16T15:32:23.632Z,1.80
2023-03-16T15:34:46.665Z,2.27
2023-03-16T15:37:17.238Z,2.17
2023-03-16T15:39:38.747Z,2.10
2023-03-16T15:42:00.495Z,2.20
2023-03-16T15:44:22.855Z,1.83
2023-03-16T15:46:44.504Z,2.07
2023-03-16T15:49:06.512Z,2.20
2023-03-16T15:51:30.459Z,2.27
2023-03-16T15:53:57.773Z,2.07
2023-03-16T15:56:29.228Z,2.20
2023-03-16T15:58:50.978Z,2.00
2023-03-16T16:01:25.454Z,2.03
2023-03-16T16:03:47.247Z,2.07
2023-03-16T16:06:17.419Z,2.10
2023-03-16T16:08:38.859Z,1.97
2023-03-16T16:11:00.385Z,1.80
2023-03-16T16:13:43.537Z,1.80
2023-03-16T16:16:06.777Z,1.90
2023-03-16T16:18:31.948Z,2.20
2023-03-16T16:20:53.989Z,1.70
2023-03-16T16:23:15.488Z,1.73
2023-03-16T16:25:41.363Z,1.47
2023-03-16T16:28:03.074Z,1.80
2023-03-16T16:30:31.367Z,1.70
2023-03-16T16:32:53.387Z,2.00
2023-03-16T16:35:17.463Z,1.90
2023-03-16T16:37:38.992Z,2.03
2023-03-16T16:40:00.501Z,3.00
2023-03-16T16:42:22.031Z,2.70
2023-03-16T16:44:44.156Z,2.97
2023-03-16T16:47:18.458Z,2.50
2023-03-16T16:49:40.162Z,1.87
2023-03-16T16:52:02.262Z,4.80
2023-03-16T16:54:26.189Z,3.37
2023-03-16T16:56:50.069Z,2.30
2023-03-16T16:59:24.756Z,1.80
2023-03-16T17:01:48.160Z,2.07
2023-03-16T17:04:15.162Z,1.83
2023-03-16T17:06:36.865Z,2.07
2023-03-16T17:08:58.342Z,1.60
2023-03-16T17:11:23.917Z,1.60
2023-03-16T17:13:46.965Z,1.90
2023-03-16T17:16:16.700Z,1.67
2023-03-16T17:18:39.127Z,1.80
2023-03-16T17:21:00.632Z,4.13
2023-03-16T17:23:34.506Z,5.63
2023-03-16T17:25:58.619Z,2.30
2023-03-16T17:28:20.485Z,2.80
2023-03-16T17:30:42.687Z,3.00
2023-03-16T17:33:13.232Z,1.67
2023-03-16T17:35:34.844Z,2.10
2023-03-16T17:37:56.882Z,5.53
2023-03-16T17:40:25.437Z,4.00
2023-03-16T17:42:48.324Z,2.50
2023-03-16T17:45:17.794Z,2.13
2023-03-16T17:47:39.666Z,2.30
2023-03-16T17:50:01.380Z,1.90
2023-03-16T17:52:25.784Z,2.20
2023-03-16T17:54:48.572Z,2.27
2023-03-16T17:57:17.163Z,2.03
2023-03-16T17:59:38.789Z,2.43
2023-03-16T18:02:00.507Z,2.37
2023-03-16T18:04:24.587Z,2.30
2023-03-16T18:06:47.511Z,2.57
2023-03-16T18:09:09.704Z,2.20
2023-03-16T18:11:35.593Z,2.10
2023-03-16T18:13:57.374Z,2.47
2023-03-16T18:16:23.366Z,2.40
2023-03-16T18:18:44.890Z,2.70
2023-03-16T18:21:06.408Z,2.60
2023-03-16T18:23:30.539Z,2.40
2023-03-16T18:25:54.749Z,2.40
2023-03-16T18:28:17.266Z,2.20
2023-03-16T18:30:39.781Z,2.27
2023-03-16T18:33:03.054Z,2.50
2023-03-16T18:35:24.724Z,2.47
2023-03-16T18:37:46.404Z,2.07
2023-03-16T18:40:12.756Z,2.13
2023-03-16T18:42:34.237Z,2.40
2023-03-16T18:44:55.699Z,2.40
2023-03-16T18:47:20.141Z,2.47
2023-03-16T18:49:41.673Z,2.53
2023-03-16T18:52:04.312Z,2.70
2023-03-16T18:54:28.596Z,2.50
2023-03-16T18:56:50.183Z,2.20
2023-03-16T18:59:12.579Z,3.07
2023-03-16T19:01:38.711Z,2.17
2023-03-16T19:04:02.089Z,2.50
2023-03-16T19:06:30.958Z,2.87
2023-03-16T19:08:52.951Z,2.33
2023-03-16T19:11:14.932Z,2.20
2023-03-16T19:13:36.383Z,2.33
2023-03-16T19:15:58.096Z,2.50
2023-03-16T19:18:19.963Z,5.60
2023-03-16T19:20:43.773Z,3.60
2023-03-16T19:23:26.165Z,2.60
2023-03-16T19:25:48.217Z,2.20
2023-03-16T19:28:16.349Z,2.37
2023-03-16T19:30:38.545Z,2.23
2023-03-16T19:33:00.393Z,2.13
2023-03-16T19:35:33.178Z,2.13
2023-03-16T19:38:02.646Z,2.20
2023-03-16T19:40:25.469Z,1.97
2023-03-16T19:42:47.619Z,2.47
2023-03-16T19:45:23.393Z,2.23
2023-03-16T19:47:45.975Z,2.00
2023-03-16T19:50:19.254Z,2.07
2023-03-16T19:52:40.654Z,2.27
2023-03-16T19:55:02.245Z,1.90
2023-03-16T19:57:24.240Z,2.30
2023-03-16T19:59:56.944Z,1.80
2023-03-16T20:02:37.525Z,1.93
2023-03-16T20:04:58.995Z,1.73
2023-03-16T20:07:21.341Z,1.87
2023-03-16T20:09:43.215Z,1.93
2023-03-16T20:12:04.702Z,1.87
2023-03-16T20:14:33.456Z,2.20
2023-03-16T20:16:55.118Z,2.27
2023-03-16T20:19:16.668Z,2.10
2023-03-16T20:21:38.148Z,1.97
2023-03-16T20:23:59.609Z,2.30
2023-03-16T20:26:32.252Z,2.00
2023-03-16T20:28:53.841Z,2.30
2023-03-16T20:31:24.122Z,2.87
2023-03-16T20:33:46.347Z,2.40
2023-03-16T20:36:12.307Z,2.40
2023-03-16T20:38:33.837Z,2.50
2023-03-16T20:40:56.004Z,2.50
2023-03-16T20:43:25.326Z,2.83
2023-03-16T20:45:46.915Z,2.77
2023-03-16T20:48:15.700Z,2.90
2023-03-16T20:50:37.133Z,3.00
2023-03-16T20:52:58.582Z,2.70
2023-03-16T20:55:23.332Z,3.13
2023-03-16T20:57:44.864Z,3.43
2023-03-16T21:03:50.346Z,4.37
2023-03-16T21:06:23.486Z,3.90
2023-03-16T21:08:44.935Z,4.00
2023-03-16T21:11:21.815Z,4.03
2023-03-16T21:13:43.257Z,3.70
2023-03-16T21:16:05.367Z,3.50
2023-03-16T21:18:27.799Z,3.93
2023-03-16T21:20:50.614Z,3.57
2023-03-16T21:23:18.198Z,3.73
2023-03-16T21:25:44.955Z,3.73
2023-03-16T21:28:07.132Z,4.20
2023-03-16T21:30:37.636Z,3.90
2023-03-16T21:33:01.757Z,4.30
2023-03-16T21:35:33.021Z,3.67
2023-03-16T21:37:54.528Z,4.13
2023-03-16T21:40:22.130Z,3.80
2023-03-16T21:42:44.564Z,3.87
2023-03-16T21:45:06.625Z,4.53
2023-03-16T21:47:29.317Z,4.07
2023-03-16T21:49:51.242Z,4.20
2023-03-16T21:52:28.130Z,3.27
2023-03-16T21:54:50.966Z,4.03
2023-03-16T21:57:15.238Z,3.93
2023-03-16T21:59:36.948Z,3.97
2023-03-16T22:02:01.983Z,3.97
2023-03-16T22:04:23.944Z,3.90
2023-03-16T22:06:46.002Z,3.37
2023-03-16T22:09:15.411Z,4.17
2023-03-16T22:11:36.849Z,5.90
2023-03-16T22:13:59.449Z,5.20
2023-03-16T22:16:23.476Z,4.73
2023-03-16T22:18:47.123Z,4.37
2023-03-16T22:21:32.992Z,4.00
2023-03-16T22:23:56.372Z,5.00
2023-03-16T22:26:20.626Z,4.13
2023-03-16T22:28:42.637Z,5.60
2023-03-16T22:31:05.186Z,4.10
2023-03-16T22:33:29.935Z,4.17
2023-03-16T22:35:52.604Z,3.93
2023-03-16T22:38:15.023Z,3.57
2023-03-16T22:40:39.167Z,3.53
2023-03-16T22:43:04.059Z,4.83
2023-03-16T22:45:28.572Z,4.17
2023-03-16T22:47:51.054Z,5.77
2023-03-16T22:50:17.961Z,4.30
2023-03-16T22:52:39.488Z,4.00
2023-03-16T22:55:03.237Z,3.77
2023-03-16T22:57:25.037Z,4.13
2023-03-16T22:59:48.377Z,4.03
2023-03-16T23:02:18.315Z,3.90
2023-03-16T23:04:39.945Z,3.70
2023-03-16T23:07:02.145Z,4.20
2023-03-16T23:09:23.729Z,3.77
2023-03-16T23:11:47.217Z,3.90
2023-03-16T23:14:24.185Z,3.83
2023-03-16T23:16:46.713Z,3.53
2023-03-16T23:19:34.660Z,3.77
2023-03-16T23:21:59.718Z,3.53
2023-03-16T23:24:22.251Z,3.80
2023-03-16T23:26:44.369Z,3.50
2023-03-16T23:29:06.074Z,3.30
2023-03-16T23:31:27.743Z,3.07
2023-03-16T23:33:49.180Z,3.80
2023-03-16T23:36:19.680Z,3.90
2023-03-16T23:38:41.285Z,3.77
2023-03-16T23:41:02.765Z,4.03
2023-03-16T23:43:24.241Z,3.50
2023-03-16T23:45:46.803Z,4.10
2023-03-16T23:48:14.994Z,3.63
2023-03-16T23:50:37.725Z,3.47
2023-03-16T23:52:59.392Z,3.37
2023-03-16T23:55:21.426Z,3.17
2023-03-16T23:57:42.897Z,4.10
